Time;durP1;ratioP1;P1;durP2;ratioP2;P2;SDS_P1;SDS_P2;PMS_P1;PMS_P2;Temp;Humidity;BMP_temperature;BMP_pressure;BME280_temperature;BME280_humidity;BME280_pressure;Samples;Min_cycle;Max_cycle;Signal;HPM_P1;HPM_P2
2023/12/24 00:01:40;;;;;;;;;;;;;;;-144.99;100.00;52619.31;5087589;28;19989;-74
2023/12/24 00:04:08;;;;;;;;;;;;;;;-144.99;100.00;52611.16;5082384;28;19981;-72
2023/12/24 00:06:34;;;;;;;;;;;;;;;-144.99;100.00;52623.38;5079438;28;19964;-72
2023/12/24 00:09:01;;;;;;;;;;;;;;;-144.99;100.00;52651.94;5083570;28;20044;-73
2023/12/24 00:11:27;;;;;;;;;;;;;;;-144.99;100.00;52615.25;5086709;28;20050;-70
2023/12/24 00:13:54;;;;;;;;;;;;;;;-144.99;100.00;52590.78;5092842;28;19925;-72
2023/12/24 00:16:20;;;;;;;;;;;;;;;-144.99;100.00;52572.44;5085404;28;19967;-72
2023/12/24 00:18:47;;;;;;;;;;;;;;;-144.99;100.00;52603.00;5081366;28;19932;-63
2023/12/24 00:21:15;;;;;;;;;;;;;;;-144.99;100.00;52617.28;5091945;28;19979;-63
2023/12/24 00:23:42;;;;;;;;;;;;;;;-144.99;100.00;52647.84;5095632;28;20054;-62
2023/12/24 00:26:09;;;;;;;;;;;;;;;-144.99;100.00;52639.69;5084951;28;19932;-63
2023/12/24 00:28:36;;;;;;;;;;;;;;;-144.99;100.00;52617.28;5083856;28;20467;-63
2023/12/24 00:31:02;;;;;;;;;;;;;;;-144.99;100.00;52621.34;5085706;28;19932;-63
2023/12/24 00:33:29;;;;;;;;;;;;;;;-144.99;100.00;52590.78;5086043;28;19972;-63
2023/12/24 00:35:55;;;;;;;;;;;;;;;-144.99;100.00;52660.09;5087241;28;20328;-63
2023/12/24 00:38:23;;;;;;;;;;;;;;;-144.99;100.00;52603.00;5084446;28;19928;-62
2023/12/24 00:40:49;;;;;;;;;;;;;;;-144.99;100.00;52615.25;5086014;28;19999;-62
2023/12/24 00:43:16;;;;;;;;;;;;;;;-144.99;100.00;52617.28;5084402;28;20025;-63
2023/12/24 00:45:44;;;;;;;;;;;;;;;-144.99;100.00;52615.25;5082349;28;20055;-63
2023/12/24 00:48:11;;;;;;;;;;;;;;;-144.99;100.00;52639.69;5091279;28;19932;-63
2023/12/24 00:50:37;;;;;;;;;;;;;;;-144.99;100.00;52627.47;5089038;28;19962;-62
2023/12/24 00:53:04;;;;;;;;;;;;;;;-144.99;100.00;52603.00;5088554;28;20463;-62
2023/12/24 00:55:32;;;;;;;;;;;;;;;-144.99;100.00;52615.25;5090902;28;20028;-62
2023/12/24 00:57:58;;;;;;;;;;;;;;;-144.99;100.00;52635.63;5087731;28;20481;-63
2023/12/24 01:00:25;;;;;;;;;;;;;;;-144.99;100.00;52623.38;5082631;28;20001;-71
2023/12/24 01:02:51;;;;;;;;;;;;;;;-144.99;100.00;52598.94;5084902;28;19932;-71
2023/12/24 01:05:18;;;;;;;;;;;;;;;-144.99;100.00;52619.31;5087639;28;19928;-74
2023/12/24 01:07:44;;;;;;;;;;;;;;;-144.99;100.00;52605.03;5086300;28;20035;-68
2023/12/24 01:10:12;;;;;;;;;;;;;;;-144.99;100.00;52594.84;5092548;28;20360;-68
2023/12/24 01:12:39;;;;;;;;;;;;;;;-144.99;100.00;52598.94;5084830;28;19975;-70
2023/12/24 01:15:08;;;;;;;;;;;;;;;-144.99;100.00;52603.00;5087010;28;20028;-69
2023/12/24 01:17:35;;;;;;;;;;;;;;;-144.99;100.00;52639.69;5085474;28;19928;-68
2023/12/24 01:20:01;;;;;;;;;;;;;;;-144.99;100.00;52570.38;5090880;28;20373;-68
2023/12/24 01:22:28;;;;;;;;;;;;;;;-144.99;100.00;52598.94;5083259;28;19935;-69
2023/12/24 01:24:54;;;;;;;;;;;;;;;-144.99;100.00;52611.16;5087167;28;20019;-69
2023/12/24 01:27:21;;;;;;;;;;;;;;;-144.99;100.00;52649.88;5095127;28;20013;-68
2023/12/24 01:29:49;;;;;;;;;;;;;;;-144.99;100.00;52643.78;5078626;28;20487;-67
2023/12/24 01:32:16;;;;;;;;;;;;;;;-144.99;100.00;52603.00;5082950;28;19932;-70
2023/12/24 01:34:42;;;;;;;;;;;;;;;-144.99;100.00;52611.16;5087960;28;20352;-71
2023/12/24 01:37:08;;;;;;;;;;;;;;;-144.99;100.00;52590.78;5086100;28;20051;-70
2023/12/24 01:39:35;;;;;;;;;;;;;;;-144.99;100.00;52619.31;5090362;28;20387;-71
2023/12/24 01:42:01;;;;;;;;;;;;;;;-144.99;100.00;52590.78;5098253;28;20336;-70
2023/12/24 01:44:28;;;;;;;;;;;;;;;-144.99;100.00;52590.78;5078771;28;19993;-70
2023/12/24 01:46:56;;;;;;;;;;;;;;;-144.99;100.00;52574.47;5089684;28;20027;-70
2023/12/24 01:49:22;;;;;;;;;;;;;;;-144.99;100.00;52580.59;5086288;28;19950;-70
2023/12/24 01:51:49;;;;;;;;;;;;;;;-144.99;100.00;52603.00;5084888;28;19928;-71
2023/12/24 01:54:15;;;;;;;;;;;;;;;-144.99;100.00;52574.47;5085317;28;20439;-70
2023/12/24 01:56:42;;;;;;;;;;;;;;;-144.99;100.00;52558.16;5097362;28;20015;-71
2023/12/24 01:59:09;;;;;;;;;;;;;;;-144.99;100.00;52586.69;5084981;28;20491;-70
2023/12/24 02:01:35;;;;;;;;;;;;;;;-144.99;100.00;52627.47;5083000;28;19927;-71
2023/12/24 02:04:03;;;;;;;;;;;;;;;-144.99;100.00;52598.94;5082374;28;20015;-68
2023/12/24 02:06:31;;;;;;;;;;;;;;;-144.99;100.00;52611.16;5095450;28;20051;-68
2023/12/24 02:08:58;;;;;;;;;;;;;;;-144.99;100.00;52554.09;5091925;28;19928;-69
2023/12/24 02:11:24;;;;;;;;;;;;;;;-144.99;100.00;52554.09;5088454;28;19971;-75
2023/12/24 02:13:51;;;;;;;;;;;;;;;-144.99;100.00;52584.66;5079664;28;20212;-72
2023/12/24 02:16:19;;;;;;;;;;;;;;;-144.99;100.00;52533.69;5082263;28;19932;-71
2023/12/24 02:18:46;;;;;;;;;;;;;;;-144.99;100.00;52578.53;5085049;28;20449;-71
2023/12/24 02:21:13;;;;;;;;;;;;;;;-144.99;100.00;52574.47;5084996;28;19955;-70
2023/12/24 02:23:40;;;;;;;;;;;;;;;-144.99;100.00;52578.53;5085832;28;20015;-69
2023/12/24 02:26:08;;;;;;;;;;;;;;;-144.99;100.00;52578.53;5084504;28;20007;-72
2023/12/24 02:28:38;;;;;;;;;;;;;;;-144.99;100.00;52562.25;5090417;28;19971;-65
2023/12/24 02:31:07;;;;;;;;;;;;;;;-144.99;100.00;52590.78;5085548;28;19932;-65
2023/12/24 02:33:35;;;;;;;;;;;;;;;-144.99;100.00;52586.69;4736538;28;10000414;-64
2023/12/24 02:36:02;;;;;;;;;;;;;;;-144.99;100.00;52570.38;5083772;28;19982;-69
2023/12/24 02:38:30;;;;;;;;;;;;;;;-144.99;100.00;52582.63;5083089;28;20029;-70
2023/12/24 02:40:56;;;;;;;;;;;;;;;-144.99;100.00;52566.31;5083285;28;19932;-70
2023/12/24 02:43:24;;;;;;;;;;;;;;;-144.99;100.00;52586.69;5080059;28;21364;-70
2023/12/24 02:45:51;;;;;;;;;;;;;;;-144.99;100.00;52529.63;5087062;28;19925;-69
2023/12/24 02:48:17;;;;;;;;;;;;;;;-144.99;100.00;52574.47;5084717;28;19933;-69
2023/12/24 02:50:44;;;;;;;;;;;;;;;-144.99;100.00;52619.31;5093247;28;20010;-72
2023/12/24 02:53:11;;;;;;;;;;;;;;;-144.99;100.00;52611.16;5086091;28;20306;-70
2023/12/24 02:55:39;;;;;;;;;;;;;;;-144.99;100.00;52582.63;5096585;28;20402;-70
2023/12/24 02:58:05;;;;;;;;;;;;;;;-144.99;100.00;52594.84;5085385;28;19935;-69
2023/12/24 03:00:32;;;;;;;;;;;;;;;-144.99;100.00;52603.00;5086674;28;19970;-65
2023/12/24 03:02:58;;;;;;;;;;;;;;;-144.99;100.00;52594.84;5082630;28;19932;-65
2023/12/24 03:05:25;;;;;;;;;;;;;;;-144.99;100.00;52592.81;5088865;28;19993;-70
2023/12/24 03:07:51;;;;;;;;;;;;;;;-144.99;100.00;52521.47;5095517;28;19955;-75
2023/12/24 03:10:18;;;;;;;;;;;;;;;-144.99;100.00;52598.94;5086957;28;19963;-73
2023/12/24 03:12:46;;;;;;;;;;;;;;;-144.99;100.00;52578.53;5085835;28;20035;-72
2023/12/24 03:15:15;;;;;;;;;;;;;;;-144.99;100.00;52550.00;5083736;28;19963;-71
2023/12/24 03:17:42;;;;;;;;;;;;;;;-144.99;100.00;52570.38;5086614;28;19935;-71
2023/12/24 03:20:09;;;;;;;;;;;;;;;-144.99;100.00;52533.69;5094932;28;19974;-71
2023/12/24 03:22:35;;;;;;;;;;;;;;;-144.99;100.00;52570.38;5087790;28;19928;-70
2023/12/24 03:25:02;;;;;;;;;;;;;;;-144.99;100.00;52550.00;5084681;28;19971;-68
2023/12/24 03:27:29;;;;;;;;;;;;;;;-144.99;100.00;52594.84;5088024;28;19997;-66
2023/12/24 03:32:30;;;;;;;;;;;;;;;-144.99;100.00;52572.44;5083071;28;19978;-67
2023/12/24 03:34:57;;;;;;;;;;;;;;;-144.99;100.00;52558.16;5075503;28;19928;-67
2023/12/24 03:37:23;;;;;;;;;;;;;;;-144.99;100.00;52603.00;5093497;28;19971;-67
2023/12/24 03:39:50;;;;;;;;;;;;;;;-144.99;100.00;52574.47;5095323;28;20219;-67
2023/12/24 03:42:16;;;;;;;;;;;;;;;-144.99;100.00;52547.97;5086187;28;19932;-67
2023/12/24 03:44:43;;;;;;;;;;;;;;;-144.99;100.00;52537.78;5092246;28;19954;-67
2023/12/24 03:47:09;;;;;;;;;;;;;;;-144.99;100.00;52574.47;5091702;28;20023;-67
2023/12/24 03:49:37;;;;;;;;;;;;;;;-144.99;100.00;52572.44;5086849;28;19924;-69
2023/12/24 03:52:04;;;;;;;;;;;;;;;-144.99;100.00;52594.84;5096500;28;19924;-71
2023/12/24 03:54:30;;;;;;;;;;;;;;;-144.99;100.00;52582.63;5091686;28;19974;-70
2023/12/24 03:56:57;;;;;;;;;;;;;;;-144.99;100.00;52578.53;5091883;28;19979;-72
2023/12/24 03:59:23;;;;;;;;;;;;;;;-144.99;100.00;52611.16;5088730;28;19952;-71
2023/12/24 04:01:50;;;;;;;;;;;;;;;-144.99;100.00;52598.94;5090605;28;19925;-72
2023/12/24 04:04:16;;;;;;;;;;;;;;;-144.99;100.00;52619.31;5087017;28;20033;-71
2023/12/24 04:06:46;;;;;;;;;;;;;;;-144.99;100.00;52617.28;5088590;28;19932;-71
2023/12/24 04:09:12;;;;;;;;;;;;;;;-144.99;100.00;52537.78;5092899;28;19932;-71
2023/12/24 04:11:39;;;;;;;;;;;;;;;-144.99;100.00;52550.00;5084533;28;19936;-72
2023/12/24 04:14:05;;;;;;;;;;;;;;;-144.99;100.00;52574.47;5082831;28;20373;-72
2023/12/24 04:16:32;;;;;;;;;;;;;;;-144.99;100.00;52580.59;5104017;28;19932;-72
2023/12/24 04:18:58;;;;;;;;;;;;;;;-144.99;100.00;52570.38;5106047;28;19940;-71
2023/12/24 04:21:25;;;;;;;;;;;;;;;-144.99;100.00;52586.69;5102207;28;19955;-71
2023/12/24 04:23:53;;;;;;;;;;;;;;;-144.99;100.00;52590.78;5109459;28;19939;-68
2023/12/24 04:26:19;;;;;;;;;;;;;;;-144.99;100.00;52574.47;5086436;28;20022;-68
2023/12/24 04:28:46;;;;;;;;;;;;;;;-144.99;100.00;52550.00;5079966;28;20064;-67
2023/12/24 04:31:13;;;;;;;;;;;;;;;-144.99;100.00;52554.09;5088314;28;20029;-74
2023/12/24 04:33:40;;;;;;;;;;;;;;;-144.99;100.00;52566.31;5088026;28;20326;-73
2023/12/24 04:36:08;;;;;;;;;;;;;;;-144.99;100.00;52562.25;5092271;28;19979;-73
2023/12/24 04:38:34;;;;;;;;;;;;;;;-144.99;100.00;52550.00;5090917;28;19989;-75
2023/12/24 04:41:02;;;;;;;;;;;;;;;-144.99;100.00;52594.84;5090685;28;19928;-72
2023/12/24 04:43:29;;;;;;;;;;;;;;;-144.99;100.00;52578.53;5090087;28;20016;-71
2023/12/24 04:45:55;;;;;;;;;;;;;;;-144.99;100.00;52566.31;5090256;28;20001;-68
2023/12/24 04:48:22;;;;;;;;;;;;;;;-144.99;100.00;52623.38;5082107;28;19974;-69
2023/12/24 04:50:49;;;;;;;;;;;;;;;-144.99;100.00;52566.31;5087790;28;19928;-70
2023/12/24 04:53:15;;;;;;;;;;;;;;;-144.99;100.00;52574.47;5089401;28;20390;-71
2023/12/24 04:55:41;;;;;;;;;;;;;;;-144.99;100.00;52568.34;5091739;28;20366;-64
2023/12/24 04:58:09;;;;;;;;;;;;;;;-144.99;100.00;52590.78;5086063;28;19928;-64
2023/12/24 05:00:36;;;;;;;;;;;;;;;-144.99;100.00;52566.31;5091129;28;20442;-64
2023/12/24 05:03:02;;;;;;;;;;;;;;;-144.99;100.00;52598.94;5092659;28;19927;-64
2023/12/24 05:05:29;;;;;;;;;;;;;;;-144.99;100.00;52554.09;5095181;28;19928;-64
2023/12/24 05:07:55;;;;;;;;;;;;;;;-144.99;100.00;52570.38;5085402;28;20046;-64
2023/12/24 05:10:22;;;;;;;;;;;;;;;-144.99;100.00;52574.47;5086736;28;20371;-64
2023/12/24 05:12:49;;;;;;;;;;;;;;;-144.99;100.00;52550.00;5088559;28;20356;-66
2023/12/24 05:15:17;;;;;;;;;;;;;;;-144.99;100.00;52550.00;5090769;28;19931;-65
2023/12/24 05:17:44;;;;;;;;;;;;;;;-144.99;100.00;52562.25;5090876;28;19924;-65
2023/12/24 05:20:11;;;;;;;;;;;;;;;-144.99;100.00;52564.28;5089775;28;20013;-65
2023/12/24 05:22:37;;;;;;;;;;;;;;;-144.99;100.00;52576.50;5087557;28;19924;-65
2023/12/24 05:25:04;;;;;;;;;;;;;;;-144.99;100.00;52566.31;5091016;28;19928;-68
2023/12/24 05:27:31;;;;;;;;;;;;;;;-144.99;100.00;52558.16;5089299;28;19971;-67
2023/12/24 05:29:57;;;;;;;;;;;;;;;-144.99;100.00;52586.69;5089841;28;20450;-67
2023/12/24 05:32:25;;;;;;;;;;;;;;;-144.99;100.00;52611.16;5085450;28;19932;-68
2023/12/24 05:34:51;;;;;;;;;;;;;;;-144.99;100.00;52574.47;5088050;28;19964;-67
2023/12/24 05:37:18;;;;;;;;;;;;;;;-144.99;100.00;52562.25;5091079;28;19932;-68
2023/12/24 05:39:44;;;;;;;;;;;;;;;-144.99;100.00;52590.78;5089522;28;19981;-69
2023/12/24 05:42:11;;;;;;;;;;;;;;;-144.99;100.00;52586.69;5087607;28;19981;-70
2023/12/24 05:44:37;;;;;;;;;;;;;;;-144.99;100.00;52558.16;5086978;28;19956;-69
2023/12/24 05:47:04;;;;;;;;;;;;;;;-144.99;100.00;52623.38;5093118;28;19950;-70
2023/12/24 05:49:33;;;;;;;;;;;;;;;-144.99;100.00;52562.25;5090367;28;19939;-69
2023/12/24 05:51:59;;;;;;;;;;;;;;;-144.99;100.00;52582.63;5088295;28;19935;-68
2023/12/24 05:54:26;;;;;;;;;;;;;;;-144.99;100.00;52558.16;5085909;28;20039;-68
2023/12/24 05:56:52;;;;;;;;;;;;;;;-144.99;100.00;52584.66;5084005;28;19924;-67
2023/12/24 05:59:19;;;;;;;;;;;;;;;-144.99;100.00;52550.00;5088512;28;19969;-67
2023/12/24 06:01:45;;;;;;;;;;;;;;;-144.99;100.00;52566.31;5087765;28;20024;-67
2023/12/24 06:04:12;;;;;;;;;;;;;;;-144.99;100.00;52570.38;5087060;28;20365;-73
2023/12/24 06:06:41;;;;;;;;;;;;;;;-144.99;100.00;52582.63;5090697;28;19924;-62
2023/12/24 06:09:08;;;;;;;;;;;;;;;-144.99;100.00;52562.25;5087020;28;19963;-61
2023/12/24 06:11:34;;;;;;;;;;;;;;;-144.99;100.00;52541.84;5084803;28;19934;-62
2023/12/24 06:14:01;;;;;;;;;;;;;;;-144.99;100.00;52613.19;5085361;28;20011;-62
2023/12/24 06:16:28;;;;;;;;;;;;;;;-144.99;100.00;52598.94;5084837;28;20016;-71
2023/12/24 06:18:55;;;;;;;;;;;;;;;-144.99;100.00;52541.84;5087156;28;19938;-70
2023/12/24 06:21:21;;;;;;;;;;;;;;;-144.99;100.00;52594.84;5089720;28;19985;-70
2023/12/24 06:23:50;;;;;;;;;;;;;;;-144.99;100.00;52556.13;5083322;28;20417;-70
2023/12/24 06:26:17;;;;;;;;;;;;;;;-144.99;100.00;52550.00;5089300;28;19963;-70
2023/12/24 06:28:43;;;;;;;;;;;;;;;-144.99;100.00;52603.00;5088464;28;20485;-68
2023/12/24 06:31:09;;;;;;;;;;;;;;;-144.99;100.00;52582.63;5088748;28;19932;-68
2023/12/24 06:33:36;;;;;;;;;;;;;;;-144.99;100.00;52582.63;5087182;28;19924;-67
2023/12/24 06:36:03;;;;;;;;;;;;;;;-144.99;100.00;52598.94;5084734;28;19978;-67
2023/12/24 06:38:29;;;;;;;;;;;;;;;-144.99;100.00;52566.31;5086439;28;20420;-67
2023/12/24 06:40:57;;;;;;;;;;;;;;;-144.99;100.00;52566.31;5084385;28;19932;-66
2023/12/24 06:43:23;;;;;;;;;;;;;;;-144.99;100.00;52562.25;5086078;28;20019;-66
2023/12/24 06:45:50;;;;;;;;;;;;;;;-144.99;100.00;52623.38;5087967;28;19955;-67
2023/12/24 06:48:16;;;;;;;;;;;;;;;-144.99;100.00;52545.94;5085481;28;19975;-66
2023/12/24 06:50:43;;;;;;;;;;;;;;;-144.99;100.00;52603.00;5088529;28;20011;-66
2023/12/24 06:53:09;;;;;;;;;;;;;;;-144.99;100.00;52578.53;5084747;28;19924;-66
2023/12/24 06:55:36;;;;;;;;;;;;;;;-144.99;100.00;52554.09;5085045;28;20010;-69
2023/12/24 06:58:06;;;;;;;;;;;;;;;-144.99;100.00;52574.47;5084031;28;20354;-67
2023/12/24 07:00:32;;;;;;;;;;;;;;;-144.99;100.00;52586.69;5089241;28;19939;-67
2023/12/24 07:02:59;;;;;;;;;;;;;;;-144.99;100.00;52545.94;5084563;28;20516;-67
2023/12/24 07:05:25;;;;;;;;;;;;;;;-144.99;100.00;52574.47;5088158;28;19963;-68
2023/12/24 07:07:51;;;;;;;;;;;;;;;-144.99;100.00;52576.50;5089499;28;20398;-66
2023/12/24 07:10:19;;;;;;;;;;;;;;;-144.99;100.00;52545.94;5087358;28;19923;-66
2023/12/24 07:12:45;;;;;;;;;;;;;;;-144.99;100.00;52603.00;5086994;28;20017;-66
2023/12/24 07:15:13;;;;;;;;;;;;;;;-144.99;100.00;52578.53;5086668;28;21189;-70
2023/12/24 07:17:40;;;;;;;;;;;;;;;-144.99;100.00;52558.16;5080835;28;20189;-67
2023/12/24 07:20:07;;;;;;;;;;;;;;;-144.99;100.00;52572.44;5084329;28;19924;-67
2023/12/24 07:22:33;;;;;;;;;;;;;;;-144.99;100.00;52558.16;5085455;28;19997;-66
2023/12/24 07:25:00;;;;;;;;;;;;;;;-144.99;100.00;52590.78;5086943;28;20043;-71
2023/12/24 07:27:26;;;;;;;;;;;;;;;-144.99;100.00;52566.31;5082331;28;20039;-72
2023/12/24 07:29:53;;;;;;;;;;;;;;;-144.99;100.00;52554.09;5083493;28;19924;-72
2023/12/24 07:32:21;;;;;;;;;;;;;;;-144.99;100.00;52550.00;5075417;28;19977;-72
2023/12/24 07:34:47;;;;;;;;;;;;;;;-144.99;100.00;52580.59;5085010;28;20415;-66
2023/12/24 07:37:14;;;;;;;;;;;;;;;-144.99;100.00;52574.47;5085936;28;20165;-68
2023/12/24 07:39:40;;;;;;;;;;;;;;;-144.99;100.00;52562.25;5081985;28;19954;-71
2023/12/24 07:42:08;;;;;;;;;;;;;;;-144.99;100.00;52586.69;5087630;28;19955;-71
2023/12/24 07:44:35;;;;;;;;;;;;;;;-144.99;100.00;52578.53;5084490;28;20035;-71
2023/12/24 07:47:01;;;;;;;;;;;;;;;-144.99;100.00;52590.78;5089422;28;19960;-72
2023/12/24 07:49:29;;;;;;;;;;;;;;;-144.99;100.00;52550.00;5098537;28;19980;-71
2023/12/24 07:51:55;;;;;;;;;;;;;;;-144.99;100.00;52541.84;5096605;28;19940;-71
2023/12/24 07:54:22;;;;;;;;;;;;;;;-144.99;100.00;52529.63;5085474;28;20425;-71
2023/12/24 07:56:48;;;;;;;;;;;;;;;-144.99;100.00;52566.31;5083799;28;20374;-72
2023/12/24 07:59:15;;;;;;;;;;;;;;;-144.99;100.00;52552.03;5082298;28;20017;-68
2023/12/24 08:01:41;;;;;;;;;;;;;;;-144.99;100.00;52566.31;5086341;28;20368;-70
2023/12/24 08:04:08;;;;;;;;;;;;;;;-144.99;100.00;52566.31;5086102;28;20035;-68
2023/12/24 08:06:35;;;;;;;;;;;;;;;-144.99;100.00;52562.25;5083731;28;19931;-69
2023/12/24 08:09:02;;;;;;;;;;;;;;;-144.99;100.00;52554.09;5084225;28;20348;-68
2023/12/24 08:11:29;;;;;;;;;;;;;;;-144.99;100.00;52558.16;5081003;28;20351;-67
2023/12/24 08:13:55;;;;;;;;;;;;;;;-144.99;100.00;52607.09;5084816;28;19973;-66
2023/12/24 08:16:22;;;;;;;;;;;;;;;-144.99;100.00;52578.53;5082927;28;19999;-67
2023/12/24 08:18:48;;;;;;;;;;;;;;;-144.99;100.00;52586.69;5083086;28;19993;-67
2023/12/24 08:21:15;;;;;;;;;;;;;;;-144.99;100.00;52550.00;5086960;28;20392;-67
2023/12/24 08:23:42;;;;;;;;;;;;;;;-144.99;100.00;52566.31;5084386;28;20040;-66
2023/12/24 08:26:09;;;;;;;;;;;;;;;-144.99;100.00;52590.78;5086664;28;20348;-67
2023/12/24 08:28:35;;;;;;;;;;;;;;;-144.99;100.00;52617.28;5086137;28;19983;-67
2023/12/24 08:31:02;;;;;;;;;;;;;;;-144.99;100.00;52598.94;5090107;28;19924;-67
2023/12/24 08:33:28;;;;;;;;;;;;;;;-144.99;100.00;52572.44;5087214;28;19951;-68
2023/12/24 08:35:55;;;;;;;;;;;;;;;-144.99;100.00;52550.00;5088307;28;19932;-66
2023/12/24 08:38:22;;;;;;;;;;;;;;;-144.99;100.00;52584.66;5084668;28;20337;-66
2023/12/24 08:40:49;;;;;;;;;;;;;;;-144.99;100.00;52603.00;5086662;28;19931;-68
2023/12/24 08:43:16;;;;;;;;;;;;;;;-144.99;100.00;52545.94;5082586;28;19960;-67
2023/12/24 08:45:42;;;;;;;;;;;;;;;-144.99;100.00;52570.38;5082778;28;19985;-66
2023/12/24 08:48:09;;;;;;;;;;;;;;;-144.99;100.00;52578.53;5091354;28;19977;-63
2023/12/24 08:50:35;;;;;;;;;;;;;;;-144.99;100.00;52562.25;5090852;28;19942;-64
2023/12/24 08:53:03;;;;;;;;;;;;;;;-144.99;100.00;52570.38;5089725;28;19955;-66
2023/12/24 08:55:29;;;;;;;;;;;;;;;-144.99;100.00;52558.16;5091564;28;19924;-70
2023/12/24 08:57:59;;;;;;;;;;;;;;;-144.99;100.00;52590.78;5089705;28;19924;-69
2023/12/24 09:00:25;;;;;;;;;;;;;;;-144.99;100.00;52582.63;5091341;28;19942;-70
2023/12/24 09:02:52;;;;;;;;;;;;;;;-144.99;100.00;52578.53;5091382;28;19927;-70
2023/12/24 09:05:18;;;;;;;;;;;;;;;-144.99;100.00;52590.78;5091107;28;20107;-69
2023/12/24 09:07:46;;;;;;;;;;;;;;;-144.99;100.00;52554.09;5092745;28;20043;-69
2023/12/24 09:10:12;;;;;;;;;;;;;;;-144.99;100.00;52572.44;5091843;28;20032;-71
2023/12/24 09:12:39;;;;;;;;;;;;;;;-144.99;100.00;52570.38;5093191;28;20574;-72
2023/12/24 09:15:07;;;;;;;;;;;;;;;-144.99;100.00;52578.53;5095452;28;19928;-71
2023/12/24 09:17:33;;;;;;;;;;;;;;;-144.99;100.00;52574.47;5083793;28;20441;-71
2023/12/24 09:20:00;;;;;;;;;;;;;;;-144.99;100.00;52566.31;5089077;28;20403;-71
2023/12/24 09:22:26;;;;;;;;;;;;;;;-144.99;100.00;52603.00;5091140;28;19985;-70
2023/12/24 09:24:53;;;;;;;;;;;;;;;-144.99;100.00;52586.69;5088769;28;20013;-71
2023/12/24 09:27:19;;;;;;;;;;;;;;;-144.99;100.00;52570.38;5084162;28;20258;-72
2023/12/24 09:29:46;;;;;;;;;;;;;;;-144.99;100.00;52529.63;5089690;28;20014;-70
2023/12/24 09:32:14;;;;;;;;;;;;;;;-144.99;100.00;52550.00;5087517;28;19928;-71
2023/12/24 09:34:40;;;;;;;;;;;;;;;-144.99;100.00;52619.31;5089533;28;19971;-71
2023/12/24 09:37:07;;;;;;;;;;;;;;;-144.99;100.00;52603.00;5091487;28;19932;-71
2023/12/24 09:39:33;;;;;;;;;;;;;;;-144.99;100.00;52590.78;5089398;28;20009;-71
2023/12/24 09:42:00;;;;;;;;;;;;;;;-144.99;100.00;52550.00;5091064;28;19931;-70
2023/12/24 09:44:26;;;;;;;;;;;;;;;-144.99;100.00;52568.34;5089562;28;20027;-71
2023/12/24 09:46:53;;;;;;;;;;;;;;;-144.99;100.00;52578.53;5091322;28;20347;-71
2023/12/24 09:49:21;;;;;;;;;;;;;;;-144.99;100.00;52564.28;5089843;28;20361;-70
2023/12/24 09:51:47;;;;;;;;;;;;;;;-144.99;100.00;52562.25;5092796;28;19985;-72
2023/12/24 09:54:15;;;;;;;;;;;;;;;-144.99;100.00;52537.78;5102082;28;19928;-72
2023/12/24 09:56:41;;;;;;;;;;;;;;;-144.99;100.00;52545.94;5092991;28;19928;-71
2023/12/24 09:59:08;;;;;;;;;;;;;;;-144.99;100.00;52570.38;5084286;28;19927;-71
2023/12/24 10:01:44;;;;;;;;;;;;;;;-144.99;100.00;52531.66;5089642;28;19935;-72
2023/12/24 10:04:12;;;;;;;;;;;;;;;-144.99;100.00;52550.00;5084934;28;19947;-70
2023/12/24 10:06:52;;;;;;;;;;;;;;;-144.99;100.00;52564.28;5090142;28;20018;-70
2023/12/24 10:09:20;;;;;;;;;;;;;;;-144.99;100.00;52558.16;5086927;28;19934;-71
2023/12/24 10:12:02;;;;;;;;;;;;;;;-144.99;100.00;52576.50;5089663;28;19924;-71
2023/12/24 10:14:28;;;;;;;;;;;;;;;-144.99;100.00;52566.31;5088640;28;20646;-71
2023/12/24 10:16:55;;;;;;;;;;;;;;;-144.99;100.00;52596.88;5090390;28;20295;-71
2023/12/24 10:19:23;;;;;;;;;;;;;;;-144.99;100.00;52554.09;5090212;28;20374;-71
2023/12/24 10:22:00;;;;;;;;;;;;;;;-144.99;100.00;52582.63;5088739;28;20348;-71
2023/12/24 10:24:27;;;;;;;;;;;;;;;-144.99;100.00;52541.84;5088286;28;20022;-71
2023/12/24 10:27:02;;;;;;;;;;;;;;;-144.99;100.00;52570.38;5085310;28;20316;-71
2023/12/24 10:29:29;;;;;;;;;;;;;;;-144.99;100.00;52558.16;5087070;28;19967;-71
2023/12/24 10:31:55;;;;;;;;;;;;;;;-144.99;100.00;52517.41;5082072;28;19924;-72
2023/12/24 10:34:22;;;;;;;;;;;;;;;-144.99;100.00;52572.44;5089561;28;19924;-70
2023/12/24 10:36:49;;;;;;;;;;;;;;;-144.99;100.00;52564.28;5089984;28;19989;-71
2023/12/24 10:39:24;;;;;;;;;;;;;;;-144.99;100.00;52558.16;5087855;28;19947;-71
2023/12/24 10:41:50;;;;;;;;;;;;;;;-144.99;100.00;52584.66;5089050;28;19973;-70
2023/12/24 10:44:17;;;;;;;;;;;;;;;-144.99;100.00;52558.16;5088392;28;20398;-70
2023/12/24 10:46:43;;;;;;;;;;;;;;;-144.99;100.00;52574.47;5083307;28;19997;-71
2023/12/24 10:49:10;;;;;;;;;;;;;;;-144.99;100.00;52582.63;5077979;28;19989;-70
2023/12/24 10:51:39;;;;;;;;;;;;;;;-144.99;100.00;52556.13;5089167;28;19924;-71
2023/12/24 10:54:07;;;;;;;;;;;;;;;-144.99;100.00;52554.09;5089517;28;19954;-70
2023/12/24 10:56:42;;;;;;;;;;;;;;;-144.99;100.00;52566.31;5086514;28;19932;-71
2023/12/24 10:59:13;;;;;;;;;;;;;;;-144.99;100.00;52525.56;5081144;28;20460;-69
2023/12/24 11:01:39;;;;;;;;;;;;;;;-144.99;100.00;52594.84;5087772;28;19946;-70
2023/12/24 11:04:05;;;;;;;;;;;;;;;-144.99;100.00;52570.38;5089746;28;20023;-70
2023/12/24 11:06:48;;;;;;;;;;;;;;;-144.99;100.00;52533.69;5083965;28;19924;-71
2023/12/24 11:09:33;;;;;;;;;;;;;;;-144.99;100.00;52570.38;5082068;28;20016;-71
2023/12/24 11:12:00;;;;;;;;;;;;;;;-144.99;100.00;52570.38;5083531;28;19924;-69
2023/12/24 11:14:37;;;;;;;;;;;;;;;-144.99;100.00;52545.94;5081269;28;19996;-70
2023/12/24 11:17:05;;;;;;;;;;;;;;;-144.99;100.00;52603.00;5089047;28;20418;-71
2023/12/24 11:19:32;;;;;;;;;;;;;;;-144.99;100.00;52550.00;5084480;28;19955;-71
2023/12/24 11:22:06;;;;;;;;;;;;;;;-144.99;100.00;52554.09;5076228;28;19962;-70
2023/12/24 11:24:33;;;;;;;;;;;;;;;-144.99;100.00;52566.31;5088993;28;19931;-70
2023/12/24 11:27:01;;;;;;;;;;;;;;;-144.99;100.00;52525.56;5085087;28;19969;-71
2023/12/24 11:29:44;;;;;;;;;;;;;;;-144.99;100.00;52552.03;5087315;28;19969;-69
2023/12/24 11:32:30;;;;;;;;;;;;;;;-144.99;100.00;52568.34;5087632;28;19928;-70
2023/12/24 11:34:57;;;;;;;;;;;;;;;-144.99;100.00;52566.31;5079404;28;19924;-70
2023/12/24 11:37:26;;;;;;;;;;;;;;;-144.99;100.00;52562.25;5073687;28;19928;-70
2023/12/24 11:39:59;;;;;;;;;;;;;;;-144.99;100.00;52611.16;5076210;28;20039;-70
2023/12/24 11:42:41;;;;;;;;;;;;;;;-144.99;100.00;52615.25;5088178;28;19928;-70
2023/12/24 11:45:07;;;;;;;;;;;;;;;-144.99;100.00;52550.00;5081503;28;19994;-71
2023/12/24 11:47:37;;;;;;;;;;;;;;;-144.99;100.00;52582.63;5086036;28;19985;-71
2023/12/24 11:50:04;;;;;;;;;;;;;;;-144.99;100.00;52562.25;5082345;28;20019;-71
2023/12/24 11:52:30;;;;;;;;;;;;;;;-144.99;100.00;52611.16;5077744;28;19955;-72
2023/12/24 11:54:57;;;;;;;;;;;;;;;-144.99;100.00;52592.81;5089894;28;19955;-70
2023/12/24 11:57:27;;;;;;;;;;;;;;;-144.99;100.00;52590.78;5087839;28;19963;-70
2023/12/24 11:59:55;;;;;;;;;;;;;;;-144.99;100.00;52566.31;5078837;28;20407;-70
2023/12/24 12:02:21;;;;;;;;;;;;;;;-144.99;100.00;52552.03;5075564;28;20027;-70
2023/12/24 12:04:48;;;;;;;;;;;;;;;-144.99;100.00;52564.28;5089202;28;19986;-71
2023/12/24 12:07:14;;;;;;;;;;;;;;;-144.99;100.00;52550.00;5088265;28;20342;-70
2023/12/24 12:09:41;;;;;;;;;;;;;;;-144.99;100.00;52521.47;5075109;28;19928;-70
2023/12/24 12:12:08;;;;;;;;;;;;;;;-144.99;100.00;52566.31;5071935;28;19948;-71
2023/12/24 12:14:34;;;;;;;;;;;;;;;-144.99;100.00;52560.19;5084259;28;20287;-70
2023/12/24 12:17:02;;;;;;;;;;;;;;;-144.99;100.00;52550.00;5083770;28;19979;-72
2023/12/24 12:19:28;;;;;;;;;;;;;;;-144.99;100.00;52607.09;5080703;28;19928;-70
2023/12/24 12:21:55;;;;;;;;;;;;;;;-144.99;100.00;52562.25;5086353;28;19958;-71